Time;durP1;ratioP1;P1;durP2;ratioP2;P2;SDS_P1;SDS_P2;PMS_P1;PMS_P2;Temp;Humidity;BMP_temperature;BMP_pressure;BME280_temperature;BME280_humidity;BME280_pressure;Samples;Min_cycle;Max_cycle;Signal;HPM_P1;HPM_P2
2022/01/03 00:01:36;;;;;;;12.70;2.22;;;11.30;99.90;;;;;;5091097;28;20641;-58
2022/01/03 00:04:01;;;;;;;7.47;2.10;;;11.10;99.90;;;;;;5073705;28;20207;-59
2022/01/03 00:06:27;;;;;;;7.95;2.72;;;11.20;99.90;;;;;;5091807;28;20275;-59
2022/01/03 00:08:54;;;;;;;9.63;2.40;;;11.30;99.90;;;;;;5056372;28;20639;-59
2022/01/03 00:11:21;;;;;;;9.70;2.42;;;11.30;99.90;;;;;;5090981;28;20610;-59
2022/01/03 00:13:50;;;;;;;13.82;3.25;;;11.30;99.90;;;;;;5094754;28;20180;-59
2022/01/03 00:16:16;;;;;;;12.48;2.50;;;11.20;99.90;;;;;;5077349;28;20200;-59
2022/01/03 00:18:42;;;;;;;10.60;2.63;;;11.20;99.90;;;;;;5095274;28;20188;-59
2022/01/03 00:21:12;;;;;;;8.40;2.63;;;11.10;99.90;;;;;;5076615;28;20377;-64
2022/01/03 00:23:40;;;;;;;6.90;2.20;;;11.20;99.90;;;;;;5067854;28;20181;-59
2022/01/03 00:26:08;;;;;;;5.95;1.65;;;11.40;99.90;;;;;;5095332;28;20188;-59
2022/01/03 00:28:47;;;;;;;11.77;2.30;;;11.40;99.90;;;;;;5095123;28;20183;-58
2022/01/03 00:31:17;;;;;;;11.90;2.33;;;11.50;99.90;;;;;;5095336;28;20661;-59
2022/01/03 00:33:43;;;;;;;11.48;2.47;;;11.50;99.90;;;;;;5076863;28;20184;-59
2022/01/03 00:36:09;;;;;;;8.30;2.17;;;11.50;99.90;;;;;;5094277;28;20214;-59
2022/01/03 00:38:36;;;;;;;11.85;1.90;;;11.40;99.90;;;;;;5076798;28;21748;-59
2022/01/03 00:41:02;;;;;;;9.52;1.92;;;11.30;99.90;;;;;;5095184;28;20217;-58
2022/01/03 00:43:28;;;;;;;7.38;2.35;;;11.30;99.90;;;;;;5076985;28;20209;-60
2022/01/03 00:45:56;;;;;;;8.02;1.77;;;11.40;99.90;;;;;;5094883;28;20206;-59
2022/01/03 00:48:22;;;;;;;9.50;2.10;;;11.50;99.90;;;;;;5094845;28;20261;-58
2022/01/03 00:50:48;;;;;;;7.82;2.30;;;11.60;99.90;;;;;;5095105;28;20276;-58
2022/01/03 00:53:14;;;;;;;16.10;3.30;;;11.60;99.90;;;;;;5075754;28;20272;-59
2022/01/03 00:56:04;;;;;;;8.27;1.90;;;11.60;99.90;;;;;;5094414;28;20212;-59
2022/01/03 00:58:43;;;;;;;5.97;2.35;;;11.60;99.90;;;;;;5093988;28;20191;-59
2022/01/03 01:01:09;;;;;;;13.27;2.28;;;11.60;99.90;;;;;;5094949;28;20230;-59
2022/01/03 01:03:37;;;;;;;10.30;2.67;;;11.70;99.90;;;;;;5095625;28;20169;-59
2022/01/03 01:06:07;;;;;;;6.13;2.05;;;11.60;99.90;;;;;;5093237;28;20528;-59
2022/01/03 01:08:37;;;;;;;13.85;2.00;;;11.50;99.90;;;;;;5075277;28;20534;-59
2022/01/03 01:11:06;;;;;;;4.13;1.52;;;11.40;99.90;;;;;;5094026;28;20243;-59
2022/01/03 01:13:33;;;;;;;10.15;2.00;;;11.40;99.90;;;;;;5094454;28;20169;-59
2022/01/03 01:16:04;;;;;;;16.52;4.10;;;11.50;99.90;;;;;;5065798;28;20292;-59
2022/01/03 01:18:34;;;;;;;11.60;2.05;;;11.40;99.90;;;;;;5076113;28;20195;-59
2022/01/03 01:20:59;;;;;;;11.68;3.67;;;11.30;99.90;;;;;;5094034;28;20216;-59
2022/01/03 01:23:25;;;;;;;11.15;2.78;;;11.30;99.90;;;;;;5094078;28;20200;-61
2022/01/03 01:28:17;;;;;;;12.23;2.10;;;11.20;99.90;;;;;;5094137;28;20537;-59
2022/01/03 01:30:44;;;;;;;18.40;2.67;;;11.20;99.90;;;;;;5094045;28;20185;-62
2022/01/03 01:33:15;;;;;;;17.23;2.75;;;11.20;99.90;;;;;;5093631;28;20184;-59
2022/01/03 01:35:55;;;;;;;11.98;3.80;;;11.20;99.90;;;;;;5075957;28;20665;-59
2022/01/03 01:38:24;;;;;;;15.75;2.35;;;11.30;99.90;;;;;;5094114;28;20281;-59
2022/01/03 01:40:55;;;;;;;6.72;1.77;;;11.30;99.90;;;;;;5092911;28;20216;-64
2022/01/03 01:43:42;;;;;;;4.57;1.73;;;11.30;99.90;;;;;;5093727;28;20185;-59
2022/01/03 01:46:17;;;;;;;13.57;2.38;;;11.20;99.90;;;;;;5093037;28;20211;-62
2022/01/03 01:48:46;;;;;;;11.10;2.17;;;11.20;99.90;;;;;;5075174;28;20180;-59
2022/01/03 01:51:14;;;;;;;7.20;2.63;;;11.30;99.90;;;;;;5092985;28;20176;-59
2022/01/03 01:53:52;;;;;;;7.80;2.42;;;11.30;99.90;;;;;;5058895;28;20192;-61
2022/01/03 01:56:25;;;;;;;7.97;2.05;;;11.40;99.90;;;;;;5093731;28;20199;-60
2022/01/03 01:59:01;;;;;;;8.15;2.42;;;11.40;99.90;;;;;;5092833;28;20188;-60
2022/01/03 02:01:40;;;;;;;15.40;2.65;;;11.50;99.90;;;;;;5093480;28;20176;-59
2022/01/03 02:04:31;;;;;;;10.60;2.92;;;11.50;99.90;;;;;;5093117;28;20177;-59
2022/01/03 02:07:09;;;;;;;8.13;2.45;;;11.50;99.90;;;;;;5092699;28;20196;-59
2022/01/03 02:09:42;;;;;;;8.98;1.67;;;11.40;99.90;;;;;;5093389;28;20213;-59
2022/01/03 02:12:16;;;;;;;10.75;2.42;;;11.40;99.90;;;;;;5092959;28;20699;-59
2022/01/03 02:14:43;;;;;;;8.02;2.67;;;11.40;99.90;;;;;;5093050;28;20208;-59
2022/01/03 02:17:09;;;;;;;8.35;2.13;;;11.20;99.90;;;;;;5093183;28;20295;-59
2022/01/03 02:19:37;;;;;;;8.13;2.07;;;11.30;99.90;;;;;;5093096;28;20192;-59
2022/01/03 02:22:03;;;;;;;7.03;2.23;;;11.20;99.90;;;;;;5092752;28;20256;-59
2022/01/03 02:24:29;;;;;;;13.17;2.20;;;11.20;99.90;;;;;;5071672;28;20177;-59
2022/01/03 02:26:55;;;;;;;14.70;3.40;;;11.10;99.90;;;;;;5067653;28;20179;-59
2022/01/03 02:29:21;;;;;;;6.30;2.50;;;11.10;99.90;;;;;;5082603;28;20525;-59
2022/01/03 02:31:47;;;;;;;9.23;2.83;;;11.20;99.90;;;;;;5074835;28;20187;-59
2022/01/03 02:34:12;;;;;;;10.02;3.22;;;11.30;99.90;;;;;;5093279;28;20604;-59
2022/01/03 02:36:45;;;;;;;13.70;3.05;;;11.30;99.90;;;;;;5092307;28;20736;-59
2022/01/03 02:39:11;;;;;;;9.43;2.50;;;11.20;99.90;;;;;;5091639;28;20180;-59
2022/01/03 02:41:37;;;;;;;5.80;1.90;;;11.20;99.90;;;;;;5092581;28;20196;-59
2022/01/03 02:44:02;;;;;;;6.88;2.78;;;11.30;99.90;;;;;;5092712;28;20663;-59
2022/01/03 02:46:28;;;;;;;7.03;2.30;;;11.20;99.90;;;;;;5092468;28;20202;-58
2022/01/03 02:48:54;;;;;;;12.90;3.80;;;11.20;99.90;;;;;;5092553;28;20191;-59
2022/01/03 02:51:19;;;;;;;6.88;2.55;;;11.20;99.90;;;;;;5092923;28;20233;-59
2022/01/03 02:53:46;;;;;;;16.25;2.88;;;11.30;99.90;;;;;;5092324;28;20207;-61
2022/01/03 02:56:11;;;;;;;15.50;3.05;;;11.30;99.90;;;;;;5074685;28;20213;-58
2022/01/03 02:58:37;;;;;;;4.78;3.53;;;11.20;99.90;;;;;;5093104;28;20263;-59
2022/01/03 03:01:04;;;;;;;9.98;2.90;;;11.30;99.90;;;;;;5092460;28;20677;-59
2022/01/03 03:03:30;;;;;;;13.70;2.40;;;11.30;99.90;;;;;;5091490;28;20196;-59
2022/01/03 03:05:58;;;;;;;9.55;2.40;;;11.20;99.90;;;;;;5093185;28;20188;-59
2022/01/03 03:08:24;;;;;;;6.70;2.83;;;11.30;99.90;;;;;;5092389;28;20552;-59
2022/01/03 03:10:50;;;;;;;10.05;2.55;;;11.20;99.90;;;;;;5074226;28;20207;-59
2022/01/03 03:13:15;;;;;;;6.82;2.00;;;11.10;99.90;;;;;;5057938;28;20278;-59
2022/01/03 03:15:41;;;;;;;10.40;2.92;;;11.10;99.90;;;;;;5057767;28;20310;-59
2022/01/03 03:18:09;;;;;;;8.77;2.47;;;11.00;99.90;;;;;;5040808;28;20195;-60
2022/01/03 03:20:36;;;;;;;10.80;1.80;;;11.00;99.90;;;;;;5074686;28;20250;-59
2022/01/03 03:23:02;;;;;;;11.93;2.10;;;10.90;99.90;;;;;;5091315;28;20671;-60
2022/01/03 03:25:34;;;;;;;6.90;1.73;;;10.90;99.90;;;;;;5092232;28;20222;-59
2022/01/03 03:28:08;;;;;;;11.40;2.53;;;10.90;99.90;;;;;;5073784;28;20223;-58
2022/01/03 03:30:39;;;;;;;9.57;2.60;;;10.90;99.90;;;;;;5090961;28;20184;-59
2022/01/03 03:33:12;;;;;;;13.10;3.43;;;11.00;99.90;;;;;;5091935;28;20622;-59
2022/01/03 03:35:39;;;;;;;10.70;2.50;;;11.00;99.90;;;;;;5074934;28;20623;-59
2022/01/03 03:38:05;;;;;;;17.30;2.70;;;11.10;99.90;;;;;;5091255;28;20204;-59
2022/01/03 03:40:31;;;;;;;11.47;2.17;;;11.00;99.90;;;;;;5092226;28;20279;-59
2022/01/03 03:42:56;;;;;;;8.43;2.43;;;11.00;99.90;;;;;;5090908;28;20268;-59
2022/01/03 03:45:23;;;;;;;10.67;2.30;;;10.80;99.90;;;;;;5092480;28;20286;-59
2022/01/03 03:47:49;;;;;;;12.37;2.80;;;10.80;99.90;;;;;;5093535;28;20282;-59
2022/01/03 03:50:15;;;;;;;6.70;2.50;;;10.90;99.90;;;;;;5077952;28;20185;-59
2022/01/03 03:52:41;;;;;;;6.73;2.37;;;10.80;99.90;;;;;;5095926;28;20637;-59
2022/01/03 03:55:07;;;;;;;8.30;2.17;;;10.70;99.90;;;;;;5088804;28;20204;-59
2022/01/03 03:57:33;;;;;;;9.90;2.50;;;10.70;99.90;;;;;;5095776;28;20193;-59
2022/01/03 03:59:59;;;;;;;14.23;3.17;;;10.70;99.90;;;;;;5095932;28;20191;-59
2022/01/03 04:02:24;;;;;;;14.73;2.10;;;10.70;99.90;;;;;;5094799;28;20187;-59
2022/01/03 04:04:50;;;;;;;9.20;3.10;;;10.70;99.90;;;;;;5095781;28;20196;-59
2022/01/03 04:07:16;;;;;;;8.27;2.13;;;10.70;99.90;;;;;;5094843;28;20188;-60
2022/01/03 04:09:42;;;;;;;12.00;3.90;;;10.60;99.90;;;;;;5077569;28;20180;-62
2022/01/03 04:12:08;;;;;;;5.47;2.53;;;10.60;99.90;;;;;;5078255;28;20188;-60
2022/01/03 04:14:33;;;;;;;12.00;2.87;;;10.70;99.90;;;;;;5095093;28;20681;-60
2022/01/03 04:16:59;;;;;;;13.57;2.20;;;10.70;99.90;;;;;;5060724;28;20203;-59
2022/01/03 04:19:25;;;;;;;9.47;2.73;;;10.70;99.90;;;;;;5095267;28;20246;-59
2022/01/03 04:21:50;;;;;;;11.63;2.17;;;10.70;99.90;;;;;;5095354;28;20188;-59
2022/01/03 04:24:16;;;;;;;16.63;5.23;;;10.70;99.90;;;;;;5095438;28;20185;-59
2022/01/03 04:26:43;;;;;;;8.00;2.53;;;10.80;99.90;;;;;;5076772;28;20242;-59
2022/01/03 04:29:09;;;;;;;5.57;2.57;;;10.70;99.90;;;;;;5095114;28;20180;-59
2022/01/03 04:31:34;;;;;;;8.70;2.87;;;10.70;99.90;;;;;;5077225;28;20199;-59
2022/01/03 04:34:01;;;;;;;24.17;3.40;;;10.70;99.90;;;;;;5060624;28;20227;-59
2022/01/03 04:36:27;;;;;;;8.53;3.43;;;10.70;99.90;;;;;;5094961;28;20204;-60
2022/01/03 04:38:53;;;;;;;16.23;2.83;;;10.70;99.90;;;;;;5095239;28;20583;-59
2022/01/03 04:41:19;;;;;;;11.93;2.10;;;10.70;99.90;;;;;;5094898;28;20275;-60
2022/01/03 04:43:45;;;;;;;9.63;2.53;;;10.80;99.90;;;;;;5094031;28;20546;-60
2022/01/03 04:46:11;;;;;;;9.20;2.03;;;10.90;99.90;;;;;;5076182;28;20208;-62
2022/01/03 04:48:38;;;;;;;10.00;2.53;;;11.00;99.90;;;;;;5095858;28;20188;-59
2022/01/03 04:51:04;;;;;;;16.87;2.50;;;11.00;99.90;;;;;;5075669;28;20176;-61
2022/01/03 04:53:30;;;;;;;7.23;1.97;;;10.90;99.90;;;;;;5095890;28;20185;-59
2022/01/03 04:55:56;;;;;;;7.33;2.63;;;10.90;99.90;;;;;;5075556;28;20192;-60
2022/01/03 04:58:22;;;;;;;9.80;3.03;;;10.80;99.90;;;;;;5093802;28;20192;-60
2022/01/03 05:00:48;;;;;;;4.17;2.20;;;10.90;99.90;;;;;;5094530;28;20196;-59
2022/01/03 05:03:16;;;;;;;8.80;2.20;;;10.90;99.90;;;;;;5076411;28;20180;-60
2022/01/03 05:05:41;;;;;;;6.77;2.17;;;11.00;99.90;;;;;;5075035;28;20267;-59
2022/01/03 05:08:07;;;;;;;7.00;1.70;;;10.90;99.90;;;;;;5093595;28;20255;-59
2022/01/03 05:10:33;;;;;;;9.70;2.20;;;10.90;99.90;;;;;;5095107;28;20193;-60
2022/01/03 05:12:59;;;;;;;12.97;2.40;;;11.00;99.90;;;;;;5093543;28;20230;-60
2022/01/03 05:15:25;;;;;;;8.43;2.70;;;11.00;99.90;;;;;;5094320;28;20295;-59
2022/01/03 05:17:51;;;;;;;13.17;2.23;;;11.10;99.90;;;;;;5075573;28;20267;-59
2022/01/03 05:20:17;;;;;;;6.83;2.90;;;11.00;99.90;;;;;;5076868;28;20227;-59
2022/01/03 05:22:43;;;;;;;14.23;3.17;;;11.00;99.90;;;;;;5093689;28;20185;-59
2022/01/03 05:25:08;;;;;;;6.73;2.70;;;11.10;99.90;;;;;;5075512;28;20181;-59
2022/01/03 05:27:37;;;;;;;6.67;2.33;;;11.10;99.90;;;;;;5075217;28;20292;-58
2022/01/03 05:30:04;;;;;;;10.23;2.83;;;11.00;99.90;;;;;;5093389;28;20177;-59
2022/01/03 05:32:30;;;;;;;9.13;2.67;;;11.00;99.90;;;;;;5076594;28;20268;-59
2022/01/03 05:34:56;;;;;;;6.23;2.17;;;11.20;99.90;;;;;;5092085;28;20308;-59
2022/01/03 05:37:21;;;;;;;12.97;2.80;;;11.20;99.90;;;;;;5075985;28;20205;-59
2022/01/03 05:39:47;;;;;;;9.30;2.40;;;11.20;99.90;;;;;;5059772;28;20669;-59
2022/01/03 05:42:13;;;;;;;11.40;3.57;;;11.20;99.90;;;;;;5074829;28;20516;-60
2022/01/03 05:44:38;;;;;;;16.93;3.70;;;11.20;99.90;;;;;;5074934;28;20509;-59
2022/01/03 05:47:04;;;;;;;11.30;2.40;;;11.20;99.90;;;;;;5075512;28;20185;-59
2022/01/03 05:49:30;;;;;;;6.20;2.70;;;11.20;99.90;;;;;;5093622;28;20189;-59
2022/01/03 05:51:56;;;;;;;5.60;2.73;;;11.10;99.90;;;;;;5075667;28;20192;-59
2022/01/03 05:54:22;;;;;;;11.30;2.63;;;11.10;99.90;;;;;;5093238;28;20187;-60
2022/01/03 05:56:48;;;;;;;12.10;3.17;;;11.00;99.90;;;;;;5093183;28;20224;-60
2022/01/03 05:59:13;;;;;;;8.63;2.43;;;10.90;99.90;;;;;;5075363;28;20188;-59
2022/01/03 06:01:40;;;;;;;13.13;3.53;;;10.90;99.90;;;;;;5093699;28;20623;-58
2022/01/03 06:04:24;;;;;;;11.77;2.83;;;10.80;99.90;;;;;;5092878;28;20184;-59
2022/01/03 06:06:54;;;;;;;11.63;2.97;;;10.70;99.90;;;;;;5074171;28;20189;-59
2022/01/03 06:09:20;;;;;;;15.83;2.80;;;10.70;99.90;;;;;;5075894;28;20208;-59
2022/01/03 06:11:46;;;;;;;16.77;2.90;;;10.70;99.90;;;;;;5092369;28;20196;-59
2022/01/03 06:14:13;;;;;;;11.43;2.40;;;10.80;99.90;;;;;;5093229;28;20192;-60
2022/01/03 06:16:39;;;;;;;12.07;3.00;;;10.80;99.90;;;;;;5092275;28;20201;-59
2022/01/03 06:19:05;;;;;;;10.07;3.37;;;10.70;99.90;;;;;;5092934;28;20668;-59
2022/01/03 06:21:31;;;;;;;16.30;3.13;;;10.80;99.90;;;;;;5092705;28;20196;-59
2022/01/03 06:23:57;;;;;;;12.23;2.70;;;10.70;99.90;;;;;;5092931;28;20180;-59
2022/01/03 06:26:23;;;;;;;14.70;2.87;;;10.60;99.90;;;;;;5091894;28;20203;-60
2022/01/03 06:28:48;;;;;;;15.17;2.83;;;10.60;99.90;;;;;;5075110;28;20185;-59
2022/01/03 06:31:14;;;;;;;12.63;3.40;;;10.60;99.90;;;;;;5074140;28;20189;-60
2022/01/03 06:33:41;;;;;;;13.40;2.53;;;10.60;99.90;;;;;;5092592;28;20527;-59
2022/01/03 06:36:07;;;;;;;19.20;3.80;;;10.60;99.90;;;;;;5073769;28;20342;-59
2022/01/03 06:38:33;;;;;;;7.73;3.47;;;10.60;99.90;;;;;;5093685;28;20655;-59
2022/01/03 06:40:59;;;;;;;14.33;2.80;;;10.50;99.90;;;;;;5092317;28;20181;-63
2022/01/03 06:43:24;;;;;;;6.30;2.80;;;10.50;99.90;;;;;;5068146;28;20185;-60
2022/01/03 06:45:50;;;;;;;19.80;4.10;;;10.50;99.90;;;;;;5087085;28;20310;-60
2022/01/03 06:48:15;;;;;;;25.07;3.47;;;10.50;99.90;;;;;;5092506;28;20188;-61
2022/01/03 06:50:41;;;;;;;11.93;3.03;;;10.50;99.90;;;;;;5090654;28;20185;-60
2022/01/03 06:53:07;;;;;;;7.73;3.53;;;10.50;99.90;;;;;;5084210;28;20185;-61
2022/01/03 06:55:32;;;;;;;7.70;2.83;;;10.50;99.90;;;;;;5078781;28;20223;-60
2022/01/03 06:57:58;;;;;;;12.17;2.87;;;10.50;99.90;;;;;;5069121;28;20185;-60
2022/01/03 07:00:24;;;;;;;13.33;2.73;;;10.60;99.90;;;;;;5038052;28;20189;-60
2022/01/03 07:02:49;;;;;;;9.03;2.97;;;10.70;99.90;;;;;;5052244;28;20634;-61
2022/01/03 07:05:15;;;;;;;15.43;2.67;;;10.60;99.90;;;;;;5061041;28;20211;-61
2022/01/03 07:07:41;;;;;;;15.93;5.50;;;10.60;99.90;;;;;;5064016;28;20267;-61
2022/01/03 07:10:09;;;;;;;9.20;3.50;;;10.60;99.90;;;;;;5071076;28;20201;-62
2022/01/03 07:12:35;;;;;;;12.67;3.50;;;10.60;99.90;;;;;;5087847;28;20668;-65
2022/01/03 07:20:11;;;;;;;10.20;3.07;;;10.70;99.90;;;;;;5076346;28;20554;-63
2022/01/03 07:22:40;;;;;;;13.10;3.93;;;10.60;99.90;;;;;;5075092;28;20185;-62
2022/01/03 07:25:09;;;;;;;7.80;2.73;;;10.70;99.90;;;;;;5064830;28;20188;-68
2022/01/03 07:27:36;;;;;;;11.47;3.73;;;10.70;99.90;;;;;;5094872;28;20236;-62
2022/01/03 07:30:03;;;;;;;12.97;3.20;;;10.50;99.90;;;;;;5095735;28;20180;-62
2022/01/03 07:32:28;;;;;;;11.27;3.23;;;10.60;99.90;;;;;;5096541;28;20242;-62
2022/01/03 07:34:54;;;;;;;8.43;2.80;;;10.60;99.90;;;;;;5063133;28;20209;-64
2022/01/03 07:37:20;;;;;;;7.93;3.63;;;10.70;99.90;;;;;;5096695;28;20554;-62
2022/01/03 07:39:45;;;;;;;7.93;3.10;;;10.80;99.90;;;;;;5096423;28;20641;-62
2022/01/03 07:42:11;;;;;;;12.93;3.60;;;10.70;99.90;;;;;;5096146;28;20181;-62
2022/01/03 07:44:37;;;;;;;7.43;2.77;;;10.80;99.90;;;;;;5095593;28;20264;-61
2022/01/03 07:47:03;;;;;;;11.97;3.07;;;10.90;99.90;;;;;;5095940;28;20238;-62
2022/01/03 07:49:29;;;;;;;5.47;2.07;;;10.80;99.90;;;;;;5051985;28;20311;-62
2022/01/03 07:51:56;;;;;;;8.63;2.67;;;10.80;99.90;;;;;;5078023;28;20638;-62
2022/01/03 07:54:22;;;;;;;12.43;2.87;;;10.70;99.90;;;;;;5092203;28;20177;-62
2022/01/03 07:56:48;;;;;;;15.17;2.80;;;10.80;99.90;;;;;;5094239;28;20614;-63
2022/01/03 07:59:13;;;;;;;14.13;3.67;;;10.80;99.90;;;;;;5077948;28;20740;-64
2022/01/03 08:01:40;;;;;;;18.00;3.13;;;11.00;99.90;;;;;;5077333;28;20189;-63
2022/01/03 08:04:07;;;;;;;14.30;2.93;;;11.10;99.90;;;;;;5095601;28;20181;-63
2022/01/03 08:06:33;;;;;;;15.73;3.93;;;11.10;99.90;;;;;;5061383;28;20532;-63
2022/01/03 08:08:59;;;;;;;7.80;3.13;;;11.10;99.90;;;;;;5089126;28;20183;-64
2022/01/03 08:11:26;;;;;;;10.33;2.70;;;11.00;99.90;;;;;;5043722;28;20204;-63
2022/01/03 08:13:53;;;;;;;7.90;2.93;;;11.00;99.90;;;;;;5096116;28;20180;-63
2022/01/03 08:16:19;;;;;;;8.97;2.70;;;10.90;99.90;;;;;;5095428;28;20730;-63
2022/01/03 08:18:45;;;;;;;12.83;4.00;;;10.90;99.90;;;;;;5095639;28;20189;-63
2022/01/03 08:21:13;;;;;;;12.73;3.20;;;11.00;99.90;;;;;;5077155;28;20184;-63
2022/01/03 08:23:39;;;;;;;9.47;3.03;;;11.00;99.90;;;;;;5077881;28;20318;-64
2022/01/03 08:26:05;;;;;;;9.13;2.73;;;11.00;99.90;;;;;;5095297;28;20270;-64
2022/01/03 08:28:31;;;;;;;14.10;3.43;;;11.00;99.90;;;;;;5095133;28;20216;-65
2022/01/03 08:30:56;;;;;;;10.07;2.43;;;11.00;99.90;;;;;;5094764;28;20188;-64
2022/01/03 08:33:22;;;;;;;15.80;3.33;;;11.00;99.90;;;;;;5076452;28;20188;-63
2022/01/03 08:35:48;;;;;;;16.53;3.60;;;11.10;99.90;;;;;;5094786;28;20295;-63
2022/01/03 08:38:13;;;;;;;5.80;2.17;;;11.20;99.90;;;;;;5077123;28;20184;-63
2022/01/03 08:40:40;;;;;;;6.30;3.07;;;11.20;99.90;;;;;;5095323;28;20185;-63
2022/01/03 08:43:06;;;;;;;12.13;3.27;;;11.20;99.90;;;;;;5093956;28;20198;-63
2022/01/03 08:45:31;;;;;;;12.83;3.83;;;11.20;99.90;;;;;;5094911;28;20188;-63
2022/01/03 08:47:58;;;;;;;10.07;2.80;;;11.20;99.90;;;;;;5077198;28;20185;-63
2022/01/03 08:50:24;;;;;;;15.70;4.67;;;11.20;99.90;;;;;;5080562;28;20192;-62
2022/01/03 08:52:50;;;;;;;10.88;3.95;;;11.10;99.90;;;;;;5094484;28;20188;-63
2022/01/03 08:55:16;;;;;;;7.82;2.15;;;11.10;99.90;;;;;;5074976;28;20196;-66
2022/01/03 08:57:42;;;;;;;6.60;2.65;;;11.10;99.90;;;;;;5076251;28;20526;-63
2022/01/03 09:00:09;;;;;;;11.80;2.50;;;11.30;99.90;;;;;;5094701;28;20177;-64
2022/01/03 09:02:35;;;;;;;9.18;2.72;;;11.20;99.90;;;;;;5060798;28;20641;-64
2022/01/03 09:05:01;;;;;;;7.80;2.10;;;11.20;99.90;;;;;;5094004;28;20666;-67
2022/01/03 09:07:27;;;;;;;14.60;2.58;;;11.30;99.90;;;;;;5095349;28;20263;-64
2022/01/03 09:09:52;;;;;;;13.10;2.72;;;11.40;99.90;;;;;;5075238;28;20222;-64
2022/01/03 09:12:18;;;;;;;13.27;3.28;;;11.40;99.90;;;;;;5094833;28;20183;-64
2022/01/03 09:14:44;;;;;;;6.20;2.83;;;11.40;99.90;;;;;;5059694;28;20184;-64
2022/01/03 09:17:10;;;;;;;10.23;2.15;;;11.50;99.90;;;;;;5075818;28;20673;-64
2022/01/03 09:19:36;;;;;;;13.35;2.70;;;11.40;99.90;;;;;;5076467;28;20271;-65
2022/01/03 09:22:41;;;;;;;7.20;2.53;;;11.40;99.90;;;;;;5094539;28;20265;-64
2022/01/03 09:30:12;;;;;;;8.38;2.10;;;11.50;99.90;;;;;;5064842;28;20257;-64
2022/01/03 09:32:38;;;;;;;15.48;2.10;;;11.50;99.90;;;;;;5094625;28;20180;-64
2022/01/03 09:35:05;;;;;;;6.88;2.47;;;11.50;99.90;;;;;;5094099;28;20239;-64
2022/01/03 09:37:33;;;;;;;7.35;2.15;;;11.50;99.90;;;;;;5093551;28;20185;-64
2022/01/03 09:39:59;;;;;;;9.07;2.80;;;11.50;99.90;;;;;;5094151;28;20184;-64
2022/01/03 09:42:30;;;;;;;7.82;2.78;;;11.50;99.90;;;;;;5092947;28;20192;-64
2022/01/03 09:44:58;;;;;;;10.13;2.33;;;11.50;99.90;;;;;;5092900;28;20176;-64
2022/01/03 09:47:29;;;;;;;11.15;2.53;;;11.50;99.90;;;;;;5058674;28;20187;-64
2022/01/03 09:49:57;;;;;;;11.55;2.75;;;11.60;99.90;;;;;;5092844;28;20176;-66
2022/01/03 09:52:25;;;;;;;9.30;2.95;;;11.80;99.90;;;;;;5093678;28;20638;-64
2022/01/03 09:54:52;;;;;;;8.23;2.28;;;11.80;99.90;;;;;;5075478;28;20264;-64
2022/01/03 09:57:21;;;;;;;13.50;3.08;;;11.70;99.90;;;;;;5074515;28;20188;-64
2022/01/03 09:59:47;;;;;;;8.95;3.13;;;11.80;99.90;;;;;;5093850;28;20510;-64
2022/01/03 10:02:16;;;;;;;9.80;2.75;;;11.90;99.90;;;;;;5094434;28;20173;-64
2022/01/03 10:04:42;;;;;;;14.88;4.03;;;11.90;99.90;;;;;;5092454;28;20551;-64
2022/01/03 10:07:12;;;;;;;10.93;3.42;;;11.70;99.90;;;;;;5075183;28;20271;-64
2022/01/03 10:09:39;;;;;;;8.85;2.95;;;11.70;99.90;;;;;;5092581;28;20233;-64
2022/01/03 10:12:08;;;;;;;13.05;3.28;;;11.60;99.90;;;;;;5075604;28;20207;-64
2022/01/03 10:14:37;;;;;;;12.15;4.97;;;11.60;99.90;;;;;;5093700;28;20619;-63
2022/01/03 10:17:03;;;;;;;5.40;2.38;;;11.70;99.90;;;;;;5075217;28;20196;-63
2022/01/03 10:19:29;;;;;;;11.48;3.40;;;11.60;99.90;;;;;;5093309;28;20185;-63
2022/01/03 10:21:54;;;;;;;14.70;3.90;;;11.60;99.90;;;;;;5057809;28;20258;-63
2022/01/03 10:24:32;;;;;;;16.25;4.93;;;11.60;99.90;;;;;;5093276;28;20306;-63
2022/01/03 10:26:57;;;;;;;20.00;4.82;;;11.50;99.90;;;;;;5093259;28;20173;-63
2022/01/03 10:29:26;;;;;;;15.27;4.20;;;11.40;99.90;;;;;;5092038;28;20193;-64
2022/01/03 10:31:55;;;;;;;11.15;3.58;;;11.50;99.90;;;;;;5092153;28;20180;-65
2022/01/03 10:34:25;;;;;;;16.95;4.55;;;11.50;99.90;;;;;;5074637;28;20192;-63
2022/01/03 10:36:53;;;;;;;11.88;3.22;;;11.50;99.90;;;;;;5074409;28;20228;-63
2022/01/03 10:39:19;;;;;;;17.73;5.55;;;11.50;99.90;;;;;;5092686;28;20212;-63
2022/01/03 10:41:47;;;;;;;10.02;3.50;;;11.50;99.90;;;;;;5092875;28;20273;-63
2022/01/03 10:44:29;;;;;;;18.98;4.00;;;11.50;99.90;;;;;;5092505;28;20181;-67
2022/01/03 10:46:54;;;;;;;11.80;4.15;;;11.40;99.90;;;;;;5080173;28;20207;-64
2022/01/03 10:49:24;;;;;;;10.05;4.38;;;11.40;99.90;;;;;;5074706;28;20633;-64
2022/01/03 10:51:50;;;;;;;10.60;4.40;;;11.40;99.90;;;;;;5091798;28;20176;-63
2022/01/03 10:54:18;;;;;;;14.47;4.60;;;11.40;99.90;;;;;;5074590;28;20180;-63
2022/01/03 10:56:50;;;;;;;22.27;5.57;;;11.40;99.90;;;;;;5092326;28;20653;-64
2022/01/03 10:59:23;;;;;;;12.67;4.47;;;11.30;99.90;;;;;;5092493;28;20184;-63
2022/01/03 11:01:56;;;;;;;16.80;6.73;;;11.20;99.90;;;;;;5092710;28;20239;-63
2022/01/03 11:13:16;;;;;;;29.75;4.75;;;11.20;99.90;;;;;;5091889;28;20248;-63
2022/01/03 11:15:58;;;;;;;16.50;4.10;;;11.30;99.90;;;;;;5074348;28;20529;-64
2022/01/03 11:18:26;;;;;;;11.68;4.25;;;11.30;99.90;;;;;;5092101;28;20567;-64
2022/01/03 11:21:08;;;;;;;11.83;5.00;;;11.30;99.90;;;;;;5091963;28;20177;-65
2022/01/03 11:23:34;;;;;;;22.55;4.88;;;11.30;99.90;;;;;;5080247;28;20203;-64
2022/01/03 11:26:12;;;;;;;9.93;3.42;;;11.30;99.90;;;;;;5092172;28;20185;-67
2022/01/03 11:28:40;;;;;;;12.70;3.70;;;11.30;99.90;;;;;;5092173;28;20176;-63
2022/01/03 11:31:08;;;;;;;17.13;4.50;;;11.40;99.90;;;;;;5092065;28;20177;-64
2022/01/03 11:33:35;;;;;;;16.98;3.95;;;11.30;99.90;;;;;;5092588;28;20639;-63
2022/01/03 11:36:04;;;;;;;14.35;3.65;;;11.30;99.90;;;;;;5091713;28;20235;-64
2022/01/03 11:38:31;;;;;;;20.20;4.18;;;11.40;99.90;;;;;;5054956;28;20246;-63
2022/01/03 11:41:04;;;;;;;11.98;4.40;;;11.50;99.90;;;;;;5089905;28;20200;-63
2022/01/03 11:43:32;;;;;;;12.68;3.92;;;11.50;99.90;;;;;;5092083;28;20258;-63
2022/01/03 11:45:58;;;;;;;15.95;3.63;;;11.50;99.90;;;;;;5091255;28;20373;-63
2022/01/03 11:48:28;;;;;;;9.10;3.93;;;11.30;99.90;;;;;;5074227;28;20181;-62
2022/01/03 11:51:02;;;;;;;8.87;3.27;;;11.20;99.90;;;;;;5092025;28;20207;-64
2022/01/03 11:53:49;;;;;;;12.80;3.87;;;11.10;99.90;;;;;;5092137;28;20250;-63
2022/01/03 11:56:23;;;;;;;8.17;2.97;;;10.90;99.90;;;;;;5090971;28;20216;-63
2022/01/03 11:59:03;;;;;;;9.93;3.80;;;11.00;99.90;;;;;;5092407;28;20555;-63
2022/01/03 12:04:31;;;;;;;4.73;2.40;;;10.90;99.90;;;;;;5081583;28;20192;-63
2022/01/03 12:07:07;;;;;;;10.75;3.38;;;10.90;99.90;;;;;;5074056;28;20249;-63
2022/01/03 12:09:35;;;;;;;6.20;2.53;;;11.10;99.90;;;;;;5093542;28;20559;-63
2022/01/03 12:12:01;;;;;;;10.57;2.40;;;11.20;99.90;;;;;;5069649;28;20189;-63
2022/01/03 12:14:47;;;;;;;9.27;3.03;;;11.10;99.90;;;;;;5077144;28;20196;-64
2022/01/03 12:17:14;;;;;;;12.75;2.50;;;11.10;99.90;;;;;;5069657;28;20193;-64
2022/01/03 12:19:43;;;;;;;6.53;2.28;;;11.00;99.90;;;;;;5076916;28;20225;-64
2022/01/03 12:22:15;;;;;;;8.23;2.93;;;10.80;99.90;;;;;;5095695;28;20268;-64
2022/01/03 12:24:53;;;;;;;3.83;1.73;;;10.90;99.90;;;;;;5095383;28;20192;-63
2022/01/03 12:27:18;;;;;;;8.40;2.00;;;11.00;99.90;;;;;;5095029;28;20181;-64
2022/01/03 12:29:56;;;;;;;5.82;3.03;;;11.00;99.90;;;;;;5095744;28;20219;-63
2022/01/03 12:32:28;;;;;;;6.65;2.53;;;11.10;99.90;;;;;;5094550;28;20183;-64
2022/01/03 12:35:06;;;;;;;5.70;2.03;;;11.10;99.90;;;;;;5095399;28;20341;-63
2022/01/03 12:37:51;;;;;;;4.88;1.98;;;11.10;99.90;;;;;;5077090;28;20192;-64
2022/01/03 12:40:21;;;;;;;5.82;1.83;;;11.00;99.90;;;;;;5088428;28;20192;-64
2022/01/03 12:42:53;;;;;;;6.13;1.60;;;11.00;99.90;;;;;;5077206;28;20553;-64
2022/01/03 12:45:34;;;;;;;5.32;2.13;;;10.90;99.90;;;;;;5095140;28;20226;-64
2022/01/03 12:48:09;;;;;;;4.63;2.28;;;10.80;99.90;;;;;;5076457;28;20627;-64
2022/01/03 12:51:04;;;;;;;6.80;1.92;;;10.80;99.90;;;;;;5094880;28;20180;-64
2022/01/03 12:53:29;;;;;;;6.03;1.77;;;10.80;99.90;;;;;;5092922;28;20212;-63
2022/01/03 12:56:05;;;;;;;3.17;1.60;;;10.80;99.90;;;;;;5094727;28;20627;-64
2022/01/03 12:58:32;;;;;;;7.65;2.33;;;10.90;99.90;;;;;;5094294;28;20218;-64
2022/01/03 13:00:58;;;;;;;2.80;1.42;;;10.90;99.90;;;;;;5087255;28;20597;-64
2022/01/03 13:03:39;;;;;;;6.20;2.33;;;11.00;99.90;;;;;;5076810;28;20589;-64
2022/01/03 13:06:19;;;;;;;5.87;2.70;;;10.90;99.90;;;;;;5094664;28;20185;-64
2022/01/03 13:08:48;;;;;;;4.00;2.47;;;10.90;99.90;;;;;;5059561;28;20177;-64
2022/01/03 13:11:16;;;;;;;4.20;2.10;;;11.00;99.90;;;;;;5075163;28;20205;-64